createdAt,value
2022-11-12T00:01:27.973Z,5.00
2022-11-12T00:04:12.958Z,6.70
2022-11-12T00:06:57.785Z,7.07
2022-11-12T00:09:42.562Z,5.83
2022-11-12T00:12:27.699Z,5.60
2022-11-12T00:15:12.819Z,6.00
2022-11-12T00:17:57.803Z,5.57
2022-11-12T00:20:42.871Z,4.90
2022-11-12T00:23:28.208Z,4.10
2022-11-12T00:26:13.222Z,4.13
2022-11-12T00:28:58.178Z,4.17
2022-11-12T00:31:43.048Z,3.90
2022-11-12T00:34:28.105Z,4.33
2022-11-12T00:37:13.484Z,4.53
2022-11-12T00:39:58.371Z,3.30
2022-11-12T00:42:43.310Z,3.83
2022-11-12T00:45:28.202Z,3.97
2022-11-12T00:48:13.069Z,3.90
2022-11-12T00:51:03.680Z,3.63
2022-11-12T00:53:49.359Z,4.03
2022-11-12T00:56:35.655Z,4.50
2022-11-12T00:59:21.149Z,4.00
2022-11-12T01:02:06.036Z,5.00
2022-11-12T01:04:51.063Z,4.10
2022-11-12T01:07:36.334Z,3.87
2022-11-12T01:10:21.207Z,4.10
2022-11-12T01:13:06.093Z,5.37
2022-11-12T01:15:51.060Z,5.40
2022-11-12T01:18:36.232Z,5.23
2022-11-12T01:21:22.941Z,5.63
2022-11-12T01:24:09.059Z,3.97
2022-11-12T01:26:53.997Z,5.50
2022-11-12T01:29:38.898Z,5.23
2022-11-12T01:32:23.932Z,4.07
2022-11-12T01:35:09.081Z,5.77
2022-11-12T01:37:54.372Z,5.17
2022-11-12T01:40:39.300Z,4.27
2022-11-12T01:43:24.243Z,5.20
2022-11-12T01:46:27.643Z,5.33
2022-11-12T01:49:19.366Z,3.10
2022-11-12T01:52:15.426Z,3.20
2022-11-12T01:55:09.797Z,4.67
2022-11-12T01:58:04.213Z,4.10
2022-11-12T02:00:50.527Z,3.93
2022-11-12T02:03:35.554Z,5.43
2022-11-12T02:06:09.212Z,3.60
2022-11-12T02:08:54.102Z,5.00
2022-11-12T02:11:39.346Z,3.37
2022-11-12T02:14:24.691Z,3.20
2022-11-12T02:17:09.854Z,3.20
2022-11-12T02:19:58.974Z,3.83
2022-11-12T02:22:44.658Z,3.03
2022-11-12T02:25:29.777Z,3.80
2022-11-12T02:28:16.502Z,2.70
2022-11-12T02:31:01.625Z,2.83
2022-11-12T02:33:46.557Z,3.93
2022-11-12T02:36:31.686Z,6.17
2022-11-12T02:39:16.859Z,3.33
2022-11-12T02:42:02.272Z,3.03
2022-11-12T02:44:47.641Z,3.90
2022-11-12T02:47:32.895Z,5.33
2022-11-12T02:50:18.502Z,3.33
2022-11-12T02:53:03.617Z,4.87
2022-11-12T02:55:48.581Z,4.10
2022-11-12T02:58:33.424Z,3.87
2022-11-12T03:01:18.557Z,7.60
2022-11-12T03:04:03.774Z,3.47
2022-11-12T03:06:48.948Z,5.03
2022-11-12T03:09:34.401Z,5.37
2022-11-12T03:12:19.228Z,3.97
2022-11-12T03:15:04.542Z,4.80
2022-11-12T03:17:49.473Z,4.23
2022-11-12T03:20:34.928Z,3.17
2022-11-12T03:23:20.474Z,3.13
2022-11-12T03:26:05.452Z,2.60
2022-11-12T03:28:51.632Z,2.47
2022-11-12T03:31:36.601Z,2.90
2022-11-12T03:34:21.913Z,2.23
2022-11-12T03:37:09.482Z,2.80
2022-11-12T03:39:54.656Z,2.63
2022-11-12T03:42:47.996Z,2.43
2022-11-12T03:45:33.195Z,2.73
2022-11-12T03:48:18.034Z,3.57
2022-11-12T03:51:03.246Z,2.83
2022-11-12T03:53:48.479Z,2.77
2022-11-12T03:56:33.356Z,2.43
2022-11-12T03:59:18.408Z,2.40
2022-11-12T04:02:03.556Z,2.67
2022-11-12T04:05:07.397Z,2.40
2022-11-12T04:08:31.115Z,2.60
2022-11-12T04:11:17.255Z,2.50
2022-11-12T04:14:02.371Z,2.50
2022-11-12T04:17:06.212Z,2.50
2022-11-12T04:20:14.390Z,2.47
2022-11-12T04:22:59.613Z,2.50
2022-11-12T04:26:03.485Z,2.77
2022-11-12T04:29:07.275Z,2.60
2022-11-12T04:31:52.433Z,2.30
2022-11-12T04:34:37.275Z,2.40
2022-11-12T04:37:23.883Z,2.40
2022-11-12T04:40:30.089Z,2.43
2022-11-12T04:43:36.168Z,2.00
2022-11-12T04:46:21.364Z,2.40
2022-11-12T04:49:06.360Z,2.60
2022-11-12T04:52:06.340Z,2.30
2022-11-12T04:54:52.109Z,2.67
2022-11-12T04:57:38.242Z,5.07
2022-11-12T05:00:23.312Z,2.63
2022-11-12T05:03:08.667Z,2.80
2022-11-12T05:05:53.436Z,3.00
2022-11-12T05:08:38.324Z,2.97
2022-11-12T05:11:23.300Z,2.83
2022-11-12T05:14:08.499Z,2.93
2022-11-12T05:16:53.376Z,2.70
2022-11-12T05:19:38.209Z,2.10
2022-11-12T05:22:42.770Z,2.40
2022-11-12T05:25:28.499Z,3.33
2022-11-12T05:28:13.369Z,2.50
2022-11-12T05:30:58.329Z,2.93
2022-11-12T05:33:43.139Z,2.80
2022-11-12T05:36:28.178Z,3.40
2022-11-12T05:39:12.974Z,3.47
2022-11-12T05:42:12.413Z,3.20
2022-11-12T05:44:57.677Z,3.37
2022-11-12T05:47:42.508Z,3.03
2022-11-12T05:50:34.787Z,2.70
2022-11-12T05:53:25.417Z,2.97
2022-11-12T05:56:11.537Z,3.67
2022-11-12T05:58:56.945Z,3.27
2022-11-12T06:01:44.028Z,3.57
2022-11-12T06:04:29.202Z,3.30
2022-11-12T06:07:14.268Z,3.10
2022-11-12T06:09:59.210Z,3.50
2022-11-12T06:12:44.074Z,3.03
2022-11-12T06:15:29.006Z,4.07
2022-11-12T06:18:14.096Z,2.90
2022-11-12T06:21:19.600Z,2.90
2022-11-12T06:24:05.252Z,3.30
2022-11-12T06:26:50.356Z,3.63
2022-11-12T06:29:35.402Z,3.80
2022-11-12T06:32:20.269Z,3.43
2022-11-12T06:35:05.557Z,3.87
2022-11-12T06:37:50.585Z,3.50
2022-11-12T06:40:35.783Z,3.17
2022-11-12T06:43:20.947Z,3.80
2022-11-12T06:46:10.779Z,3.60
2022-11-12T06:48:55.714Z,4.53
2022-11-12T06:51:40.701Z,4.83
2022-11-12T06:54:25.516Z,4.50
2022-11-12T06:57:10.582Z,5.93
2022-11-12T06:59:55.536Z,6.07
2022-11-12T07:02:40.498Z,4.97
2022-11-12T07:05:25.404Z,4.53
2022-11-12T07:08:11.370Z,5.60
2022-11-12T07:10:57.490Z,5.40
2022-11-12T07:13:44.484Z,5.73
2022-11-12T07:16:29.347Z,5.53
2022-11-12T07:19:14.271Z,5.80
2022-11-12T07:21:59.275Z,5.63
2022-11-12T07:24:44.377Z,6.00
2022-11-12T07:27:30.720Z,4.97
2022-11-12T07:30:16.252Z,4.40
2022-11-12T07:33:01.298Z,5.10
2022-11-12T07:35:46.155Z,5.30
2022-11-12T07:38:34.137Z,5.90
2022-11-12T07:41:24.165Z,6.43
2022-11-12T07:44:09.553Z,6.70
2022-11-12T07:46:54.814Z,6.67
2022-11-12T07:49:39.601Z,6.30
2022-11-12T07:52:24.526Z,6.40
2022-11-12T07:55:09.398Z,5.43
2022-11-12T07:57:58.426Z,5.90
2022-11-12T08:00:43.326Z,6.27
2022-11-12T08:03:28.139Z,7.60
2022-11-12T08:06:13.028Z,5.43
2022-11-12T08:09:00.704Z,4.83
2022-11-12T08:11:45.820Z,4.13
2022-11-12T08:14:30.768Z,4.73
2022-11-12T08:17:15.800Z,4.50
2022-11-12T08:20:00.854Z,4.77
2022-11-12T08:22:49.283Z,4.83
2022-11-12T08:25:34.683Z,4.53
2022-11-12T08:28:19.862Z,4.73
2022-11-12T08:31:11.273Z,4.70
2022-11-12T08:33:56.189Z,6.20
2022-11-12T08:36:41.523Z,6.37
2022-11-12T08:39:26.648Z,5.10
2022-11-12T08:42:11.685Z,4.53
2022-11-12T08:44:56.561Z,4.47
2022-11-12T08:47:41.490Z,5.03
2022-11-12T08:50:27.550Z,5.53
2022-11-12T08:53:13.673Z,5.33
2022-11-12T08:55:59.622Z,5.07
2022-11-12T08:58:44.882Z,6.10
2022-11-12T09:01:29.755Z,5.00
2022-11-12T09:04:14.779Z,4.97
2022-11-12T09:07:00.002Z,5.37
2022-11-12T09:09:44.824Z,5.57
2022-11-12T09:12:29.826Z,5.20
2022-11-12T09:18:21.228Z,5.47
2022-11-12T09:21:09.943Z,6.23
2022-11-12T09:23:55.556Z,9.83
2022-11-12T09:26:40.532Z,7.20
2022-11-12T09:29:25.407Z,6.27
2022-11-12T09:32:10.363Z,7.93
2022-11-12T09:34:55.527Z,6.83
2022-11-12T09:37:40.780Z,7.00
2022-11-12T09:40:52.154Z,7.10
2022-11-12T09:43:46.444Z,6.50
2022-11-12T09:46:38.092Z,5.90
2022-11-12T09:49:28.213Z,7.60
2022-11-12T09:52:21.793Z,8.43
2022-11-12T09:55:28.429Z,7.00
2022-11-12T09:58:15.655Z,7.17
2022-11-12T10:01:15.027Z,6.90
2022-11-12T10:04:35.995Z,6.50
2022-11-12T10:07:28.181Z,6.93
2022-11-12T10:10:31.386Z,6.83
2022-11-12T10:13:31.747Z,7.60
2022-11-12T10:16:45.181Z,7.70
2022-11-12T10:19:42.373Z,7.10
2022-11-12T10:23:01.524Z,7.40
2022-11-12T10:25:50.398Z,11.13
2022-11-12T10:29:10.972Z,8.80
2022-11-12T10:31:55.875Z,7.67
2022-11-12T10:34:40.811Z,7.77
2022-11-12T10:37:38.142Z,7.20
2022-11-12T10:40:36.320Z,7.10
2022-11-12T10:43:23.973Z,7.27
2022-11-12T10:46:21.333Z,7.47
2022-11-12T10:49:15.845Z,7.40
2022-11-12T10:52:00.785Z,7.83
2022-11-12T10:54:49.656Z,7.53
2022-11-12T10:57:37.658Z,8.57
2022-11-12T11:00:23.184Z,7.37
2022-11-12T11:03:22.327Z,8.70
2022-11-12T11:06:21.823Z,8.33
2022-11-12T11:09:13.200Z,8.43
2022-11-12T11:11:58.480Z,8.53
2022-11-12T11:14:44.468Z,8.73
2022-11-12T11:17:29.485Z,8.90
2022-11-12T11:20:50.108Z,9.23
2022-11-12T11:23:50.671Z,9.20
2022-11-12T11:26:41.497Z,8.87
2022-11-12T11:29:37.194Z,9.57
2022-11-12T11:32:37.684Z,8.97
2022-11-12T11:35:53.837Z,10.07
2022-11-12T11:38:41.948Z,10.03
2022-11-12T11:41:41.162Z,10.27
2022-11-12T11:44:32.505Z,9.80
2022-11-12T11:47:59.824Z,10.27
2022-11-12T11:51:08.090Z,9.80
2022-11-12T11:53:58.984Z,9.60
2022-11-12T11:56:45.193Z,10.93
2022-11-12T11:59:56.661Z,10.20
2022-11-12T12:03:08.614Z,10.70
2022-11-12T12:06:02.834Z,9.60
2022-11-12T12:09:04.891Z,8.80
2022-11-12T12:12:11.338Z,10.67
2022-11-12T12:15:11.477Z,10.60
2022-11-12T12:18:20.833Z,9.20
2022-11-12T12:21:20.504Z,10.43
2022-11-12T12:24:47.530Z,11.77
2022-11-12T12:27:37.813Z,10.50
2022-11-12T12:30:24.982Z,10.77
2022-11-12T12:33:22.309Z,11.63
2022-11-12T12:36:21.281Z,11.53
2022-11-12T12:39:09.239Z,11.20
2022-11-12T12:42:05.354Z,12.50
2022-11-12T12:45:05.247Z,11.77
2022-11-12T12:47:52.360Z,11.47
2022-11-12T12:50:41.664Z,11.80
2022-11-12T12:53:29.752Z,12.40
2022-11-12T12:56:14.942Z,11.77
2022-11-12T12:59:03.597Z,12.27
2022-11-12T13:02:22.510Z,11.83
2022-11-12T13:05:24.668Z,12.20
2022-11-12T13:08:13.235Z,15.30
2022-11-12T13:10:59.590Z,11.87
2022-11-12T13:13:44.547Z,13.70
2022-11-12T13:16:49.363Z,12.87
2022-11-12T13:20:10.214Z,14.20
2022-11-12T13:22:55.223Z,13.93
2022-11-12T13:25:40.433Z,12.63
2022-11-12T13:28:25.943Z,13.60
2022-11-12T13:31:28.017Z,12.03
2022-11-12T13:34:24.824Z,12.90
2022-11-12T13:37:19.805Z,12.07
2022-11-12T13:40:11.711Z,11.80
2022-11-12T13:43:15.191Z,11.13
2022-11-12T13:46:12.267Z,11.97
2022-11-12T13:49:15.104Z,12.40
2022-11-12T13:52:00.713Z,13.37
2022-11-12T13:54:45.896Z,11.30
2022-11-12T13:57:32.479Z,12.67
2022-11-12T14:00:30.048Z,12.47
2022-11-12T14:03:18.230Z,13.00
2022-11-12T14:06:14.013Z,12.43
2022-11-12T14:09:05.451Z,12.37
2022-11-12T14:12:15.426Z,11.90
2022-11-12T14:15:08.279Z,10.70
2022-11-12T14:18:23.457Z,11.23
2022-11-12T14:21:26.959Z,11.73
2022-11-12T14:24:13.362Z,12.17
2022-11-12T14:26:58.493Z,12.13
2022-11-12T14:29:43.944Z,10.50
2022-11-12T14:32:35.837Z,10.57
2022-11-12T14:35:25.970Z,10.30
2022-11-12T14:38:28.422Z,10.03
2022-11-12T14:41:24.194Z,11.03
2022-11-12T14:44:17.785Z,12.20
2022-11-12T14:47:03.812Z,12.07
2022-11-12T14:49:49.983Z,11.20
2022-11-12T14:52:40.657Z,12.13
2022-11-12T14:55:33.261Z,12.40
2022-11-12T14:58:22.496Z,11.37
2022-11-12T15:01:59.626Z,12.37
2022-11-12T15:04:36.877Z,12.50
2022-11-12T15:08:06.346Z,11.97
2022-11-12T15:10:51.310Z,12.20
2022-11-12T15:13:41.348Z,12.30
2022-11-12T15:16:29.382Z,12.77
2022-11-12T15:19:15.619Z,11.73
2022-11-12T15:22:02.770Z,12.37
2022-11-12T15:24:49.518Z,11.37
2022-11-12T15:27:37.264Z,11.73
2022-11-12T15:30:29.014Z,10.33
2022-11-12T15:33:13.902Z,10.23
2022-11-12T15:36:00.871Z,9.90
2022-11-12T15:38:53.800Z,10.07
2022-11-12T15:41:39.668Z,9.93
2022-11-12T15:44:25.329Z,10.50
2022-11-12T15:47:20.841Z,10.40
2022-11-12T15:50:19.056Z,10.17
2022-11-12T15:53:04.023Z,10.97
2022-11-12T15:55:51.514Z,11.10
2022-11-12T15:58:37.582Z,10.17
2022-11-12T16:01:22.946Z,10.97
2022-11-12T16:04:08.101Z,11.17
2022-11-12T16:06:53.375Z,10.40
2022-11-12T16:09:38.988Z,10.67
2022-11-12T16:12:24.158Z,10.20
2022-11-12T16:15:18.202Z,12.20
2022-11-12T16:18:03.252Z,10.43
2022-11-12T16:20:49.799Z,10.50
2022-11-12T16:23:34.612Z,10.40
2022-11-12T16:26:25.656Z,11.40
2022-11-12T16:29:13.966Z,10.70
2022-11-12T16:31:59.139Z,10.40
2022-11-12T16:34:44.009Z,10.53
2022-11-12T16:37:28.741Z,10.87
2022-11-12T16:40:20.102Z,10.17
2022-11-12T16:43:05.082Z,9.67
2022-11-12T16:45:50.124Z,10.20
2022-11-12T16:48:36.193Z,9.50
2022-11-12T16:51:22.727Z,6.13
2022-11-12T16:54:07.997Z,9.57
2022-11-12T16:56:52.956Z,9.27
2022-11-12T16:59:37.823Z,9.10
2022-11-12T17:02:23.098Z,8.10
2022-11-12T17:05:13.944Z,8.90
2022-11-12T17:07:58.872Z,8.40
2022-11-12T17:10:44.051Z,8.60
2022-11-12T17:13:29.551Z,9.00
2022-11-12T17:16:15.158Z,8.47
2022-11-12T17:19:02.060Z,10.10
2022-11-12T17:21:47.402Z,9.67
2022-11-12T17:24:32.318Z,8.87
2022-11-12T17:27:17.484Z,9.77
2022-11-12T17:30:04.024Z,10.47
2022-11-12T17:32:49.165Z,12.97
2022-11-12T17:35:34.393Z,13.63
2022-11-12T17:38:19.483Z,13.93
2022-11-12T17:41:04.903Z,8.97
2022-11-12T17:43:55.207Z,9.07
2022-11-12T17:46:40.168Z,8.47
2022-11-12T17:49:26.798Z,8.67
2022-11-12T17:52:11.711Z,9.17
2022-11-12T17:54:56.673Z,9.87
2022-11-12T17:57:44.739Z,10.17
2022-11-12T18:00:29.966Z,10.13
2022-11-12T18:03:15.154Z,9.97
2022-11-12T18:06:01.249Z,12.27
2022-11-12T18:08:47.524Z,13.80
2022-11-12T18:11:42.907Z,18.70
2022-11-12T18:14:28.215Z,16.23
2022-11-12T18:17:14.457Z,18.83
2022-11-12T18:19:59.731Z,15.57
2022-11-12T18:22:45.141Z,13.27
2022-11-12T18:25:30.513Z,13.13
2022-11-12T18:28:15.570Z,12.40
2022-11-12T18:31:06.036Z,13.17
2022-11-12T18:33:51.566Z,12.67
2022-11-12T18:36:36.830Z,12.67
2022-11-12T18:39:21.641Z,11.67
2022-11-12T18:42:07.750Z,12.80
2022-11-12T18:44:53.101Z,12.80
2022-11-12T18:47:38.765Z,12.27
2022-11-12T18:50:23.798Z,12.17
2022-11-12T18:53:08.920Z,11.93
2022-11-12T18:55:55.299Z,12.40
2022-11-12T18:58:40.711Z,12.83
2022-11-12T19:01:25.863Z,12.97
2022-11-12T19:04:11.548Z,13.40
2022-11-12T19:06:56.787Z,12.73
2022-11-12T19:09:41.934Z,11.77
2022-11-12T19:12:26.844Z,11.67
2022-11-12T19:15:11.862Z,12.83
2022-11-12T19:17:57.085Z,11.37
2022-11-12T19:20:42.091Z,12.37
2022-11-12T19:23:27.740Z,11.40
2022-11-12T19:26:15.450Z,11.10
2022-11-12T19:29:01.449Z,11.43
2022-11-12T19:31:46.376Z,11.73
2022-11-12T19:34:31.304Z,10.73
2022-11-12T19:37:33.180Z,10.13
2022-11-12T19:40:18.821Z,11.40
2022-11-12T19:43:04.181Z,11.30
2022-11-12T19:45:49.615Z,11.57
2022-11-12T19:48:34.742Z,11.37
2022-11-12T19:51:19.950Z,11.77
2022-11-12T19:54:04.842Z,11.77
2022-11-12T19:56:50.358Z,12.03
2022-11-12T19:59:35.382Z,12.83
2022-11-12T20:02:20.303Z,13.00
2022-11-12T20:05:05.912Z,12.20
2022-11-12T20:07:50.870Z,10.97
2022-11-12T20:10:36.347Z,11.67
2022-11-12T20:13:21.437Z,10.67
2022-11-12T20:16:12.954Z,11.07
2022-11-12T20:18:58.020Z,11.27
2022-11-12T20:21:42.977Z,11.03
2022-11-12T20:24:28.016Z,9.97
2022-11-12T20:27:13.321Z,10.23
2022-11-12T20:29:58.400Z,10.77
2022-11-12T20:32:43.379Z,10.83
2022-11-12T20:35:28.635Z,11.13
2022-11-12T20:38:13.627Z,9.80
2022-11-12T20:41:00.115Z,9.73
2022-11-12T20:43:45.344Z,9.63
2022-11-12T20:46:30.330Z,9.53
2022-11-12T20:49:15.710Z,9.37
2022-11-12T20:52:01.010Z,9.60
2022-11-12T20:54:46.304Z,10.23
2022-11-12T20:57:31.623Z,10.90
2022-11-12T21:00:22.841Z,10.63
2022-11-12T21:03:08.973Z,10.67
2022-11-12T21:06:02.429Z,11.40
2022-11-12T21:08:47.706Z,11.17
2022-11-12T21:11:32.800Z,11.53
2022-11-12T21:14:18.013Z,11.47
2022-11-12T21:17:03.252Z,10.30
2022-11-12T21:19:48.711Z,10.80
2022-11-12T21:22:33.901Z,11.10
2022-11-12T21:25:18.939Z,9.00
2022-11-12T21:28:04.913Z,8.70
2022-11-12T21:30:49.936Z,9.50
2022-11-12T21:33:35.512Z,9.57
2022-11-12T21:36:21.910Z,8.97
2022-11-12T21:39:08.488Z,8.63
2022-11-12T21:41:54.810Z,8.27
2022-11-12T21:44:39.668Z,8.50
2022-11-12T21:47:24.588Z,8.83
2022-11-12T21:50:09.758Z,7.50
2022-11-12T21:52:56.185Z,7.50
2022-11-12T21:55:41.258Z,8.23
2022-11-12T21:58:28.746Z,7.13
2022-11-12T22:01:17.843Z,6.77
2022-11-12T22:04:07.357Z,6.30
2022-11-12T22:06:52.620Z,7.03
2022-11-12T22:09:37.697Z,6.50
2022-11-12T22:12:22.607Z,6.63
2022-11-12T22:15:08.232Z,7.07
2022-11-12T22:17:53.065Z,6.90
2022-11-12T22:20:38.120Z,7.17
2022-11-12T22:23:23.102Z,7.60
2022-11-12T22:26:11.999Z,6.97
2022-11-12T22:28:58.504Z,6.33
2022-11-12T22:31:43.776Z,6.10
2022-11-12T22:34:28.876Z,6.13
2022-11-12T22:37:13.757Z,6.20
2022-11-12T22:39:58.723Z,6.20
2022-11-12T22:42:43.817Z,5.53
2022-11-12T22:45:28.574Z,5.30
2022-11-12T22:48:13.536Z,5.10
2022-11-12T22:51:03.943Z,5.20
2022-11-12T22:53:56.628Z,5.20
2022-11-12T22:56:41.530Z,4.93
2022-11-12T22:59:26.481Z,5.03
2022-11-12T23:02:11.404Z,5.40
2022-11-12T23:04:56.230Z,5.80
2022-11-12T23:07:41.286Z,4.83
2022-11-12T23:10:26.401Z,4.73
2022-11-12T23:13:11.608Z,5.03
2022-11-12T23:15:56.485Z,5.07
2022-11-12T23:18:42.403Z,5.27
2022-11-12T23:21:29.462Z,5.30
2022-11-12T23:24:14.520Z,4.90
2022-11-12T23:27:01.102Z,5.00
2022-11-12T23:29:46.191Z,4.97
2022-11-12T23:32:31.985Z,4.93
2022-11-12T23:35:17.361Z,4.87
2022-11-12T23:38:02.454Z,4.80
2022-11-12T23:40:56.727Z,5.20
2022-11-12T23:43:42.508Z,5.17
2022-11-12T23:46:27.535Z,5.10
2022-11-12T23:49:12.558Z,5.30
2022-11-12T23:51:57.619Z,5.20
2022-11-12T23:54:42.481Z,5.50
2022-11-12T23:57:27.598Z,4.87
